Airport ICAO


13:51 UTC

30°C

Clear skies


An affordable passengers' Moving Map for your aircraft. Made for the iPad and the iPhone
More information here

LFLL Saint Exupery


Lyon FRANCE   VFR CAVOK


METAR LFLL 231330Z VRB02KT CAVOK 30/12 Q1018 NOSIG 0h21min

TAF LFLL 231100Z 2312/2418 VRB03KT CAVOK BECMG 2315/2317 33006KT BECMG 2317/2319 34012KT OVC035 TEMPO 2321/2323 34017KT 6000 SHRA BKN014 OVC030 BECMG 2409/2411 CAVOK TEMPO 2411/2416 36020KT 2h51min





NOTAMS

OPEN